sensor_id;sensor_type;location;lat;lon;timestamp;P1;durP1;ratioP1;P2;durP2;ratioP2
7051;SDS011;3567;52.444;13.556;2023-05-07T00:01:37;23.88;;;16.40;;
7051;SDS011;3567;52.444;13.556;2023-05-07T00:04:02;18.98;;;15.77;;
7051;SDS011;3567;52.444;13.556;2023-05-07T00:06:28;18.45;;;16.23;;
7051;SDS011;3567;52.444;13.556;2023-05-07T00:08:55;17.98;;;16.08;;
7051;SDS011;3567;52.444;13.556;2023-05-07T00:11:21;18.23;;;16.20;;
7051;SDS011;3567;52.444;13.556;2023-05-07T00:13:47;19.95;;;16.73;;
7051;SDS011;3567;52.444;13.556;2023-05-07T00:16:12;18.70;;;14.20;;
7051;SDS011;3567;52.444;13.556;2023-05-07T00:18:38;17.02;;;15.02;;
7051;SDS011;3567;52.444;13.556;2023-05-07T00:21:03;16.27;;;14.23;;
7051;SDS011;3567;52.444;13.556;2023-05-07T00:23:29;15.90;;;12.55;;
7051;SDS011;3567;52.444;13.556;2023-05-07T00:25:54;15.93;;;13.82;;
7051;SDS011;3567;52.444;13.556;2023-05-07T00:28:20;20.20;;;13.55;;
7051;SDS011;3567;52.444;13.556;2023-05-07T00:30:45;15.15;;;13.65;;
7051;SDS011;3567;52.444;13.556;2023-05-07T00:33:10;13.73;;;12.27;;
7051;SDS011;3567;52.444;13.556;2023-05-07T00:35:35;13.80;;;12.45;;
7051;SDS011;3567;52.444;13.556;2023-05-07T00:38:01;13.63;;;11.77;;
7051;SDS011;3567;52.444;13.556;2023-05-07T00:40:26;13.85;;;12.55;;
7051;SDS011;3567;52.444;13.556;2023-05-07T00:42:51;14.90;;;12.07;;
7051;SDS011;3567;52.444;13.556;2023-05-07T00:45:21;14.55;;;13.02;;
7051;SDS011;3567;52.444;13.556;2023-05-07T00:47:51;15.73;;;13.23;;
7051;SDS011;3567;52.444;13.556;2023-05-07T00:50:18;16.08;;;13.00;;
7051;SDS011;3567;52.444;13.556;2023-05-07T00:52:44;20.10;;;13.88;;
7051;SDS011;3567;52.444;13.556;2023-05-07T00:55:10;26.23;;;15.68;;
7051;SDS011;3567;52.444;13.556;2023-05-07T00:57:36;17.75;;;14.45;;
7051;SDS011;3567;52.444;13.556;2023-05-07T01:00:03;16.10;;;14.07;;
7051;SDS011;3567;52.444;13.556;2023-05-07T01:02:29;16.17;;;13.55;;
7051;SDS011;3567;52.444;13.556;2023-05-07T01:04:55;15.05;;;13.55;;
7051;SDS011;3567;52.444;13.556;2023-05-07T01:07:21;21.75;;;15.05;;
7051;SDS011;3567;52.444;13.556;2023-05-07T01:09:48;19.90;;;14.50;;
7051;SDS011;3567;52.444;13.556;2023-05-07T01:12:14;15.48;;;13.98;;
7051;SDS011;3567;52.444;13.556;2023-05-07T01:14:40;16.98;;;14.07;;
7051;SDS011;3567;52.444;13.556;2023-05-07T01:17:06;19.05;;;15.52;;
7051;SDS011;3567;52.444;13.556;2023-05-07T01:19:32;20.73;;;15.57;;
7051;SDS011;3567;52.444;13.556;2023-05-07T01:22:00;17.17;;;15.05;;
7051;SDS011;3567;52.444;13.556;2023-05-07T01:24:29;17.20;;;14.82;;
7051;SDS011;3567;52.444;13.556;2023-05-07T01:26:56;17.10;;;14.75;;
7051;SDS011;3567;52.444;13.556;2023-05-07T01:29:21;19.95;;;15.55;;
7051;SDS011;3567;52.444;13.556;2023-05-07T01:31:47;17.98;;;15.75;;
7051;SDS011;3567;52.444;13.556;2023-05-07T01:34:12;16.48;;;14.35;;
7051;SDS011;3567;52.444;13.556;2023-05-07T01:36:42;17.40;;;15.50;;
7051;SDS011;3567;52.444;13.556;2023-05-07T01:39:09;18.73;;;15.45;;
7051;SDS011;3567;52.444;13.556;2023-05-07T01:41:35;16.48;;;14.63;;
7051;SDS011;3567;52.444;13.556;2023-05-07T01:44:01;16.52;;;14.70;;
7051;SDS011;3567;52.444;13.556;2023-05-07T01:46:28;14.38;;;12.98;;
7051;SDS011;3567;52.444;13.556;2023-05-07T01:48:54;16.27;;;14.02;;
7051;SDS011;3567;52.444;13.556;2023-05-07T01:51:20;14.18;;;12.63;;
7051;SDS011;3567;52.444;13.556;2023-05-07T01:53:47;17.55;;;14.43;;
7051;SDS011;3567;52.444;13.556;2023-05-07T01:56:15;15.50;;;12.10;;
7051;SDS011;3567;52.444;13.556;2023-05-07T01:58:41;16.55;;;14.68;;
7051;SDS011;3567;52.444;13.556;2023-05-07T02:01:07;17.95;;;13.98;;
7051;SDS011;3567;52.444;13.556;2023-05-07T02:03:32;15.60;;;14.00;;
7051;SDS011;3567;52.444;13.556;2023-05-07T02:05:57;17.55;;;13.65;;
7051;SDS011;3567;52.444;13.556;2023-05-07T02:08:23;14.98;;;13.25;;
7051;SDS011;3567;52.444;13.556;2023-05-07T02:10:48;16.73;;;14.02;;
7051;SDS011;3567;52.444;13.556;2023-05-07T02:13:15;14.63;;;12.93;;
7051;SDS011;3567;52.444;13.556;2023-05-07T02:15:40;18.70;;;13.38;;
7051;SDS011;3567;52.444;13.556;2023-05-07T02:18:07;14.88;;;13.30;;
7051;SDS011;3567;52.444;13.556;2023-05-07T02:20:34;14.00;;;12.55;;
7051;SDS011;3567;52.444;13.556;2023-05-07T02:22:59;15.30;;;13.68;;
7051;SDS011;3567;52.444;13.556;2023-05-07T02:25:25;21.80;;;13.60;;
7051;SDS011;3567;52.444;13.556;2023-05-07T02:27:50;15.30;;;13.80;;
7051;SDS011;3567;52.444;13.556;2023-05-07T02:30:16;13.80;;;11.90;;
7051;SDS011;3567;52.444;13.556;2023-05-07T02:32:41;15.32;;;13.68;;
7051;SDS011;3567;52.444;13.556;2023-05-07T02:35:07;15.35;;;13.85;;
7051;SDS011;3567;52.444;13.556;2023-05-07T02:37:32;14.85;;;13.45;;
7051;SDS011;3567;52.444;13.556;2023-05-07T02:39:58;15.77;;;13.55;;
7051;SDS011;3567;52.444;13.556;2023-05-07T02:42:23;15.27;;;12.75;;
7051;SDS011;3567;52.444;13.556;2023-05-07T02:44:49;18.58;;;14.10;;
7051;SDS011;3567;52.444;13.556;2023-05-07T02:47:14;14.75;;;13.40;;
7051;SDS011;3567;52.444;13.556;2023-05-07T02:49:40;16.75;;;13.40;;
7051;SDS011;3567;52.444;13.556;2023-05-07T02:52:05;18.27;;;13.50;;
7051;SDS011;3567;52.444;13.556;2023-05-07T02:54:31;14.68;;;13.18;;
7051;SDS011;3567;52.444;13.556;2023-05-07T02:56:57;15.95;;;14.35;;
7051;SDS011;3567;52.444;13.556;2023-05-07T02:59:23;18.95;;;14.73;;
7051;SDS011;3567;52.444;13.556;2023-05-07T03:01:48;15.40;;;13.52;;
7051;SDS011;3567;52.444;13.556;2023-05-07T03:04:14;15.43;;;13.32;;
7051;SDS011;3567;52.444;13.556;2023-05-07T03:06:39;15.40;;;12.98;;
7051;SDS011;3567;52.444;13.556;2023-05-07T03:09:05;16.52;;;13.73;;
7051;SDS011;3567;52.444;13.556;2023-05-07T03:11:30;30.85;;;15.13;;
7051;SDS011;3567;52.444;13.556;2023-05-07T03:13:55;16.83;;;15.10;;
7051;SDS011;3567;52.444;13.556;2023-05-07T03:16:21;21.85;;;15.57;;
7051;SDS011;3567;52.444;13.556;2023-05-07T03:18:46;20.67;;;14.55;;
7051;SDS011;3567;52.444;13.556;2023-05-07T03:21:11;16.63;;;14.77;;
7051;SDS011;3567;52.444;13.556;2023-05-07T03:23:37;17.40;;;15.38;;
7051;SDS011;3567;52.444;13.556;2023-05-07T03:26:02;16.15;;;14.45;;
7051;SDS011;3567;52.444;13.556;2023-05-07T03:28:27;16.08;;;14.25;;
7051;SDS011;3567;52.444;13.556;2023-05-07T03:30:53;19.25;;;13.98;;
7051;SDS011;3567;52.444;13.556;2023-05-07T03:33:18;16.98;;;14.88;;
7051;SDS011;3567;52.444;13.556;2023-05-07T03:35:44;17.38;;;14.70;;
7051;SDS011;3567;52.444;13.556;2023-05-07T03:38:09;16.45;;;14.73;;
7051;SDS011;3567;52.444;13.556;2023-05-07T03:40:34;19.45;;;14.82;;
7051;SDS011;3567;52.444;13.556;2023-05-07T03:43:00;16.10;;;14.13;;
7051;SDS011;3567;52.444;13.556;2023-05-07T03:45:25;15.55;;;13.95;;
7051;SDS011;3567;52.444;13.556;2023-05-07T03:47:51;16.75;;;14.07;;
7051;SDS011;3567;52.444;13.556;2023-05-07T03:50:16;16.60;;;15.00;;
7051;SDS011;3567;52.444;13.556;2023-05-07T03:52:42;16.08;;;14.10;;
7051;SDS011;3567;52.444;13.556;2023-05-07T03:55:07;15.75;;;13.57;;
7051;SDS011;3567;52.444;13.556;2023-05-07T03:57:33;14.35;;;12.77;;
7051;SDS011;3567;52.444;13.556;2023-05-07T03:59:58;15.73;;;14.13;;
7051;SDS011;3567;52.444;13.556;2023-05-07T04:02:23;16.15;;;12.90;;
7051;SDS011;3567;52.444;13.556;2023-05-07T04:04:49;17.25;;;13.25;;
7051;SDS011;3567;52.444;13.556;2023-05-07T04:07:15;16.85;;;13.07;;
7051;SDS011;3567;52.444;13.556;2023-05-07T04:09:40;19.48;;;13.93;;
7051;SDS011;3567;52.444;13.556;2023-05-07T04:12:05;18.25;;;13.23;;
7051;SDS011;3567;52.444;13.556;2023-05-07T04:14:31;19.35;;;12.77;;
7051;SDS011;3567;52.444;13.556;2023-05-07T04:16:57;14.00;;;12.48;;
7051;SDS011;3567;52.444;13.556;2023-05-07T04:19:24;14.75;;;12.65;;
7051;SDS011;3567;52.444;13.556;2023-05-07T04:21:49;12.48;;;11.02;;
7051;SDS011;3567;52.444;13.556;2023-05-07T04:24:15;14.95;;;12.05;;
7051;SDS011;3567;52.444;13.556;2023-05-07T04:26:40;14.15;;;11.65;;
7051;SDS011;3567;52.444;13.556;2023-05-07T04:29:06;13.25;;;11.55;;
7051;SDS011;3567;52.444;13.556;2023-05-07T04:31:31;13.25;;;11.48;;
7051;SDS011;3567;52.444;13.556;2023-05-07T04:33:57;17.13;;;11.82;;
7051;SDS011;3567;52.444;13.556;2023-05-07T04:36:22;13.38;;;11.40;;
7051;SDS011;3567;52.444;13.556;2023-05-07T04:38:47;13.63;;;10.75;;
7051;SDS011;3567;52.444;13.556;2023-05-07T04:41:13;12.75;;;10.60;;
7051;SDS011;3567;52.444;13.556;2023-05-07T04:43:38;15.52;;;10.52;;
7051;SDS011;3567;52.444;13.556;2023-05-07T04:46:05;12.02;;;10.10;;
7051;SDS011;3567;52.444;13.556;2023-05-07T04:48:30;12.48;;;10.05;;
7051;SDS011;3567;52.444;13.556;2023-05-07T04:50:56;13.23;;;10.55;;
7051;SDS011;3567;52.444;13.556;2023-05-07T04:53:21;12.32;;;9.70;;
7051;SDS011;3567;52.444;13.556;2023-05-07T04:55:47;10.13;;;9.07;;
7051;SDS011;3567;52.444;13.556;2023-05-07T04:58:12;13.10;;;9.75;;
7051;SDS011;3567;52.444;13.556;2023-05-07T05:00:38;11.68;;;8.38;;
7051;SDS011;3567;52.444;13.556;2023-05-07T05:03:04;9.23;;;8.32;;
7051;SDS011;3567;52.444;13.556;2023-05-07T05:05:30;10.60;;;9.57;;
7051;SDS011;3567;52.444;13.556;2023-05-07T05:07:56;10.70;;;8.82;;
7051;SDS011;3567;52.444;13.556;2023-05-07T05:10:21;10.23;;;9.07;;
7051;SDS011;3567;52.444;13.556;2023-05-07T05:12:47;10.60;;;9.60;;
7051;SDS011;3567;52.444;13.556;2023-05-07T05:15:12;10.25;;;9.25;;
7051;SDS011;3567;52.444;13.556;2023-05-07T05:17:38;9.93;;;9.13;;
7051;SDS011;3567;52.444;13.556;2023-05-07T05:20:04;10.15;;;9.20;;
7051;SDS011;3567;52.444;13.556;2023-05-07T05:22:30;10.35;;;9.27;;
7051;SDS011;3567;52.444;13.556;2023-05-07T05:24:56;9.30;;;8.40;;
7051;SDS011;3567;52.444;13.556;2023-05-07T05:27:22;9.77;;;7.97;;
7051;SDS011;3567;52.444;13.556;2023-05-07T05:29:47;9.32;;;8.43;;
7051;SDS011;3567;52.444;13.556;2023-05-07T05:32:12;8.80;;;8.00;;
7051;SDS011;3567;52.444;13.556;2023-05-07T05:34:38;10.60;;;8.93;;
7051;SDS011;3567;52.444;13.556;2023-05-07T05:37:03;10.13;;;8.93;;
7051;SDS011;3567;52.444;13.556;2023-05-07T05:39:29;8.68;;;7.82;;
7051;SDS011;3567;52.444;13.556;2023-05-07T05:41:54;10.38;;;8.63;;
7051;SDS011;3567;52.444;13.556;2023-05-07T05:44:19;9.65;;;8.65;;
7051;SDS011;3567;52.444;13.556;2023-05-07T05:46:45;8.68;;;7.93;;
7051;SDS011;3567;52.444;13.556;2023-05-07T05:49:10;8.63;;;7.55;;
7051;SDS011;3567;52.444;13.556;2023-05-07T05:51:35;8.57;;;7.78;;
7051;SDS011;3567;52.444;13.556;2023-05-07T05:54:01;8.30;;;7.53;;
7051;SDS011;3567;52.444;13.556;2023-05-07T05:56:26;8.45;;;7.60;;
7051;SDS011;3567;52.444;13.556;2023-05-07T05:58:52;8.88;;;8.02;;
7051;SDS011;3567;52.444;13.556;2023-05-07T06:01:17;10.50;;;7.32;;
7051;SDS011;3567;52.444;13.556;2023-05-07T06:03:44;8.55;;;7.65;;
7051;SDS011;3567;52.444;13.556;2023-05-07T06:06:09;8.98;;;8.10;;
7051;SDS011;3567;52.444;13.556;2023-05-07T06:08:34;10.07;;;7.43;;
7051;SDS011;3567;52.444;13.556;2023-05-07T06:11:00;8.98;;;7.30;;
7051;SDS011;3567;52.444;13.556;2023-05-07T06:13:26;7.53;;;6.40;;
7051;SDS011;3567;52.444;13.556;2023-05-07T06:15:51;7.68;;;6.80;;
7051;SDS011;3567;52.444;13.556;2023-05-07T06:18:17;8.57;;;7.22;;
7051;SDS011;3567;52.444;13.556;2023-05-07T06:20:42;8.20;;;7.25;;
7051;SDS011;3567;52.444;13.556;2023-05-07T06:23:07;7.95;;;7.15;;
7051;SDS011;3567;52.444;13.556;2023-05-07T06:25:33;8.68;;;7.40;;
7051;SDS011;3567;52.444;13.556;2023-05-07T06:27:58;10.77;;;7.32;;
7051;SDS011;3567;52.444;13.556;2023-05-07T06:30:23;9.88;;;8.02;;
7051;SDS011;3567;52.444;13.556;2023-05-07T06:32:49;7.57;;;6.88;;
7051;SDS011;3567;52.444;13.556;2023-05-07T06:35:14;6.70;;;6.10;;
7051;SDS011;3567;52.444;13.556;2023-05-07T06:37:40;10.43;;;6.63;;
7051;SDS011;3567;52.444;13.556;2023-05-07T06:40:07;7.22;;;5.70;;
7051;SDS011;3567;52.444;13.556;2023-05-07T06:42:35;8.95;;;7.10;;
7051;SDS011;3567;52.444;13.556;2023-05-07T06:45:00;7.88;;;6.82;;
7051;SDS011;3567;52.444;13.556;2023-05-07T06:47:26;7.05;;;6.45;;
7051;SDS011;3567;52.444;13.556;2023-05-07T06:49:51;8.00;;;6.47;;
7051;SDS011;3567;52.444;13.556;2023-05-07T06:52:17;6.07;;;5.57;;
7051;SDS011;3567;52.444;13.556;2023-05-07T06:54:42;6.45;;;5.88;;
7051;SDS011;3567;52.444;13.556;2023-05-07T06:57:07;7.50;;;6.88;;
7051;SDS011;3567;52.444;13.556;2023-05-07T06:59:33;8.63;;;6.28;;
7051;SDS011;3567;52.444;13.556;2023-05-07T07:01:58;8.77;;;6.40;;
7051;SDS011;3567;52.444;13.556;2023-05-07T07:04:24;7.18;;;6.07;;
7051;SDS011;3567;52.444;13.556;2023-05-07T07:06:51;7.72;;;6.45;;
7051;SDS011;3567;52.444;13.556;2023-05-07T07:09:17;6.00;;;5.50;;
7051;SDS011;3567;52.444;13.556;2023-05-07T07:11:43;8.98;;;6.30;;
7051;SDS011;3567;52.444;13.556;2023-05-07T07:14:08;8.05;;;5.32;;
7051;SDS011;3567;52.444;13.556;2023-05-07T07:16:33;5.68;;;5.10;;
7051;SDS011;3567;52.444;13.556;2023-05-07T07:18:59;5.70;;;5.10;;
7051;SDS011;3567;52.444;13.556;2023-05-07T07:21:25;5.50;;;5.03;;
7051;SDS011;3567;52.444;13.556;2023-05-07T07:23:50;4.72;;;4.43;;
7051;SDS011;3567;52.444;13.556;2023-05-07T07:26:17;8.90;;;4.70;;
7051;SDS011;3567;52.444;13.556;2023-05-07T07:28:45;4.88;;;4.45;;
7051;SDS011;3567;52.444;13.556;2023-05-07T07:31:11;5.75;;;4.47;;
7051;SDS011;3567;52.444;13.556;2023-05-07T07:33:37;5.07;;;4.35;;
7051;SDS011;3567;52.444;13.556;2023-05-07T07:36:02;5.13;;;4.03;;
7051;SDS011;3567;52.444;13.556;2023-05-07T07:38:28;4.05;;;3.72;;
7051;SDS011;3567;52.444;13.556;2023-05-07T07:40:53;4.03;;;3.22;;
7051;SDS011;3567;52.444;13.556;2023-05-07T07:43:19;4.13;;;3.80;;
7051;SDS011;3567;52.444;13.556;2023-05-07T07:45:45;3.50;;;3.00;;
7051;SDS011;3567;52.444;13.556;2023-05-07T07:48:11;5.63;;;3.30;;
7051;SDS011;3567;52.444;13.556;2023-05-07T07:50:36;6.65;;;3.60;;
7051;SDS011;3567;52.444;13.556;2023-05-07T07:53:02;4.00;;;3.70;;
7051;SDS011;3567;52.444;13.556;2023-05-07T07:55:27;4.68;;;3.47;;
7051;SDS011;3567;52.444;13.556;2023-05-07T07:57:53;4.88;;;3.47;;
7051;SDS011;3567;52.444;13.556;2023-05-07T08:00:18;4.03;;;3.63;;
7051;SDS011;3567;52.444;13.556;2023-05-07T08:02:44;4.00;;;3.70;;
7051;SDS011;3567;52.444;13.556;2023-05-07T08:05:09;3.08;;;2.88;;
7051;SDS011;3567;52.444;13.556;2023-05-07T08:07:35;3.45;;;3.13;;
7051;SDS011;3567;52.444;13.556;2023-05-07T08:10:00;2.72;;;2.53;;
7051;SDS011;3567;52.444;13.556;2023-05-07T08:12:26;3.63;;;3.05;;
7051;SDS011;3567;52.444;13.556;2023-05-07T08:14:51;2.75;;;2.42;;
7051;SDS011;3567;52.444;13.556;2023-05-07T08:17:16;2.90;;;2.58;;
7051;SDS011;3567;52.444;13.556;2023-05-07T08:19:42;3.08;;;2.33;;
7051;SDS011;3567;52.444;13.556;2023-05-07T08:22:08;2.58;;;2.42;;
7051;SDS011;3567;52.444;13.556;2023-05-07T08:24:34;3.38;;;2.38;;
7051;SDS011;3567;52.444;13.556;2023-05-07T08:26:59;2.15;;;2.00;;
7051;SDS011;3567;52.444;13.556;2023-05-07T08:29:25;2.95;;;2.65;;
7051;SDS011;3567;52.444;13.556;2023-05-07T08:31:50;3.15;;;2.13;;
7051;SDS011;3567;52.444;13.556;2023-05-07T08:34:15;2.75;;;2.05;;
7051;SDS011;3567;52.444;13.556;2023-05-07T08:36:41;5.95;;;2.10;;
7051;SDS011;3567;52.444;13.556;2023-05-07T08:39:09;3.40;;;2.47;;
7051;SDS011;3567;52.444;13.556;2023-05-07T08:41:34;3.00;;;2.30;;
7051;SDS011;3567;52.444;13.556;2023-05-07T08:43:59;3.92;;;1.95;;
7051;SDS011;3567;52.444;13.556;2023-05-07T08:46:30;3.15;;;1.70;;
7051;SDS011;3567;52.444;13.556;2023-05-07T08:48:57;1.92;;;1.58;;
7051;SDS011;3567;52.444;13.556;2023-05-07T08:51:23;1.77;;;1.67;;
7051;SDS011;3567;52.444;13.556;2023-05-07T08:53:48;2.03;;;1.70;;
7051;SDS011;3567;52.444;13.556;2023-05-07T08:56:15;2.08;;;1.83;;
7051;SDS011;3567;52.444;13.556;2023-05-07T08:58:41;2.17;;;1.98;;
7051;SDS011;3567;52.444;13.556;2023-05-07T09:01:08;5.45;;;4.95;;
7051;SDS011;3567;52.444;13.556;2023-05-07T09:03:37;2.25;;;2.10;;
7051;SDS011;3567;52.444;13.556;2023-05-07T09:06:04;2.25;;;2.15;;
7051;SDS011;3567;52.444;13.556;2023-05-07T09:08:29;2.08;;;1.83;;
7051;SDS011;3567;52.444;13.556;2023-05-07T09:10:55;1.70;;;1.40;;
7051;SDS011;3567;52.444;13.556;2023-05-07T09:13:20;1.70;;;1.60;;
7051;SDS011;3567;52.444;13.556;2023-05-07T09:15:46;2.08;;;1.52;;
7051;SDS011;3567;52.444;13.556;2023-05-07T09:18:14;4.45;;;1.90;;
7051;SDS011;3567;52.444;13.556;2023-05-07T09:20:40;3.05;;;1.55;;
7051;SDS011;3567;52.444;13.556;2023-05-07T09:23:06;5.20;;;2.00;;
7051;SDS011;3567;52.444;13.556;2023-05-07T09:25:32;2.35;;;1.88;;
7051;SDS011;3567;52.444;13.556;2023-05-07T09:28:00;2.08;;;1.90;;
7051;SDS011;3567;52.444;13.556;2023-05-07T09:30:29;2.33;;;2.05;;
7051;SDS011;3567;52.444;13.556;2023-05-07T09:32:58;2.10;;;2.00;;
7051;SDS011;3567;52.444;13.556;2023-05-07T09:35:25;2.13;;;1.92;;
7051;SDS011;3567;52.444;13.556;2023-05-07T09:37:55;2.67;;;1.83;;
7051;SDS011;3567;52.444;13.556;2023-05-07T09:40:26;2.70;;;1.55;;
7051;SDS011;3567;52.444;13.556;2023-05-07T09:42:53;1.60;;;1.50;;
7051;SDS011;3567;52.444;13.556;2023-05-07T09:45:22;2.13;;;1.88;;
7051;SDS011;3567;52.444;13.556;2023-05-07T09:47:55;4.20;;;1.60;;
7051;SDS011;3567;52.444;13.556;2023-05-07T09:50:28;1.63;;;1.15;;
7051;SDS011;3567;52.444;13.556;2023-05-07T09:52:55;1.75;;;1.40;;
7051;SDS011;3567;52.444;13.556;2023-05-07T09:55:21;2.40;;;1.35;;
7051;SDS011;3567;52.444;13.556;2023-05-07T09:57:50;1.75;;;1.20;;
7051;SDS011;3567;52.444;13.556;2023-05-07T10:00:18;3.05;;;1.20;;
7051;SDS011;3567;52.444;13.556;2023-05-07T10:02:45;1.05;;;0.95;;
7051;SDS011;3567;52.444;13.556;2023-05-07T10:05:14;2.72;;;1.40;;
7051;SDS011;3567;52.444;13.556;2023-05-07T10:07:40;1.20;;;1.00;;
7051;SDS011;3567;52.444;13.556;2023-05-07T10:10:06;1.70;;;0.90;;
7051;SDS011;3567;52.444;13.556;2023-05-07T10:12:32;1.23;;;1.13;;
7051;SDS011;3567;52.444;13.556;2023-05-07T10:15:04;3.13;;;0.90;;
7051;SDS011;3567;52.444;13.556;2023-05-07T10:17:31;0.90;;;0.90;;
7051;SDS011;3567;52.444;13.556;2023-05-07T10:19:57;1.20;;;1.15;;
7051;SDS011;3567;52.444;13.556;2023-05-07T10:22:23;2.83;;;0.90;;
7051;SDS011;3567;52.444;13.556;2023-05-07T10:24:52;4.05;;;1.02;;
7051;SDS011;3567;52.444;13.556;2023-05-07T10:27:19;3.50;;;3.30;;
7051;SDS011;3567;52.444;13.556;2023-05-07T10:29:53;1.42;;;1.33;;
7051;SDS011;3567;52.444;13.556;2023-05-07T10:33:08;2.30;;;1.02;;
7051;SDS011;3567;52.444;13.556;2023-05-07T10:35:31;0.98;;;0.93;;
7051;SDS011;3567;52.444;13.556;2023-05-07T10:38:02;1.50;;;1.17;;
7051;SDS011;3567;52.444;13.556;2023-05-07T10:40:28;1.13;;;1.13;;
7051;SDS011;3567;52.444;13.556;2023-05-07T10:42:59;2.22;;;1.35;;
7051;SDS011;3567;52.444;13.556;2023-05-07T10:45:26;1.15;;;1.02;;
7051;SDS011;3567;52.444;13.556;2023-05-07T10:48:05;0.98;;;0.98;;
7051;SDS011;3567;52.444;13.556;2023-05-07T10:50:31;1.10;;;0.85;;
7051;SDS011;3567;52.444;13.556;2023-05-07T10:53:29;1.60;;;1.33;;
7051;SDS011;3567;52.444;13.556;2023-05-07T10:55:51;1.52;;;0.85;;
7051;SDS011;3567;52.444;13.556;2023-05-07T10:58:37;1.48;;;1.13;;
7051;SDS011;3567;52.444;13.556;2023-05-07T11:01:02;1.95;;;1.17;;
7051;SDS011;3567;52.444;13.556;2023-05-07T11:03:28;1.23;;;0.98;;
7051;SDS011;3567;52.444;13.556;2023-05-07T11:14:09;0.88;;;0.88;;
7051;SDS011;3567;52.444;13.556;2023-05-07T11:16:35;0.98;;;0.80;;
7051;SDS011;3567;52.444;13.556;2023-05-07T11:19:03;1.13;;;1.02;;
7051;SDS011;3567;52.444;13.556;2023-05-07T11:21:35;4.50;;;0.90;;
7051;SDS011;3567;52.444;13.556;2023-05-07T11:24:08;3.50;;;0.90;;
7051;SDS011;3567;52.444;13.556;2023-05-07T11:26:42;1.15;;;1.05;;
7051;SDS011;3567;52.444;13.556;2023-05-07T11:29:13;1.15;;;0.90;;
7051;SDS011;3567;52.444;13.556;2023-05-07T11:31:40;1.38;;;1.20;;
7051;SDS011;3567;52.444;13.556;2023-05-07T11:34:05;0.85;;;0.85;;
7051;SDS011;3567;52.444;13.556;2023-05-07T11:36:32;1.08;;;1.08;;
7051;SDS011;3567;52.444;13.556;2023-05-07T11:38:58;0.90;;;0.90;;
7051;SDS011;3567;52.444;13.556;2023-05-07T11:41:32;0.95;;;0.95;;
7051;SDS011;3567;52.444;13.556;2023-05-07T11:43:59;0.88;;;0.88;;
7051;SDS011;3567;52.444;13.556;2023-05-07T11:46:25;0.90;;;0.70;;
7051;SDS011;3567;52.444;13.556;2023-05-07T11:48:51;3.17;;;0.82;;
7051;SDS011;3567;52.444;13.556;2023-05-07T11:51:20;1.77;;;0.75;;
7051;SDS011;3567;52.444;13.556;2023-05-07T11:53:47;3.70;;;1.00;;
7051;SDS011;3567;52.444;13.556;2023-05-07T11:56:14;1.25;;;1.10;;
7051;SDS011;3567;52.444;13.556;2023-05-07T11:58:41;0.80;;;0.80;;
7051;SDS011;3567;52.444;13.556;2023-05-07T12:01:08;1.92;;;0.80;;
7051;SDS011;3567;52.444;13.556;2023-05-07T12:03:35;1.48;;;1.02;;
7051;SDS011;3567;52.444;13.556;2023-05-07T12:06:11;1.77;;;1.00;;
7051;SDS011;3567;52.444;13.556;2023-05-07T12:08:38;1.10;;;1.00;;
7051;SDS011;3567;52.444;13.556;2023-05-07T12:11:08;0.95;;;0.95;;
7051;SDS011;3567;52.444;13.556;2023-05-07T12:13:36;1.75;;;1.00;;
7051;SDS011;3567;52.444;13.556;2023-05-07T12:16:02;1.08;;;0.98;;
7051;SDS011;3567;52.444;13.556;2023-05-07T12:18:30;2.38;;;1.00;;
7051;SDS011;3567;52.444;13.556;2023-05-07T12:20:56;1.40;;;0.85;;
7051;SDS011;3567;52.444;13.556;2023-05-07T12:23:22;3.03;;;0.88;;
7051;SDS011;3567;52.444;13.556;2023-05-07T12:25:48;0.82;;;0.80;;
7051;SDS011;3567;52.444;13.556;2023-05-07T12:28:14;0.93;;;0.88;;
7051;SDS011;3567;52.444;13.556;2023-05-07T12:30:40;2.30;;;1.25;;
7051;SDS011;3567;52.444;13.556;2023-05-07T12:33:07;3.75;;;0.88;;
7051;SDS011;3567;52.444;13.556;2023-05-07T12:35:36;0.77;;;0.77;;
7051;SDS011;3567;52.444;13.556;2023-05-07T12:38:07;1.60;;;0.88;;
7051;SDS011;3567;52.444;13.556;2023-05-07T12:40:39;1.05;;;0.90;;
7051;SDS011;3567;52.444;13.556;2023-05-07T12:43:05;0.90;;;0.90;;
7051;SDS011;3567;52.444;13.556;2023-05-07T12:45:31;0.90;;;0.85;;
7051;SDS011;3567;52.444;13.556;2023-05-07T12:47:57;0.73;;;0.73;;
7051;SDS011;3567;52.444;13.556;2023-05-07T12:50:30;1.38;;;0.73;;
7051;SDS011;3567;52.444;13.556;2023-05-07T12:52:56;0.75;;;0.75;;
7051;SDS011;3567;52.444;13.556;2023-05-07T12:55:22;1.05;;;0.90;;
7051;SDS011;3567;52.444;13.556;2023-05-07T12:57:48;1.02;;;0.63;;
7051;SDS011;3567;52.444;13.556;2023-05-07T13:00:15;1.65;;;0.70;;
7051;SDS011;3567;52.444;13.556;2023-05-07T13:02:41;1.17;;;0.90;;
7051;SDS011;3567;52.444;13.556;2023-05-07T13:05:09;0.60;;;0.60;;
7051;SDS011;3567;52.444;13.556;2023-05-07T13:07:35;1.50;;;0.80;;
7051;SDS011;3567;52.444;13.556;2023-05-07T13:10:01;0.80;;;0.80;;
7051;SDS011;3567;52.444;13.556;2023-05-07T13:12:27;0.60;;;0.60;;
7051;SDS011;3567;52.444;13.556;2023-05-07T13:14:53;1.52;;;0.80;;
7051;SDS011;3567;52.444;13.556;2023-05-07T13:17:18;3.42;;;2.35;;
7051;SDS011;3567;52.444;13.556;2023-05-07T13:19:45;1.83;;;1.73;;
7051;SDS011;3567;52.444;13.556;2023-05-07T13:22:10;0.82;;;0.82;;
7051;SDS011;3567;52.444;13.556;2023-05-07T13:24:35;5.55;;;0.50;;
7051;SDS011;3567;52.444;13.556;2023-05-07T13:27:01;2.60;;;0.77;;
7051;SDS011;3567;52.444;13.556;2023-05-07T13:29:26;0.70;;;0.70;;
7051;SDS011;3567;52.444;13.556;2023-05-07T13:31:57;1.65;;;0.90;;
7051;SDS011;3567;52.444;13.556;2023-05-07T13:34:23;0.70;;;0.70;;
7051;SDS011;3567;52.444;13.556;2023-05-07T13:36:48;2.58;;;0.77;;
7051;SDS011;3567;52.444;13.556;2023-05-07T13:39:13;0.80;;;0.80;;
7051;SDS011;3567;52.444;13.556;2023-05-07T13:41:39;0.50;;;0.50;;
7051;SDS011;3567;52.444;13.556;2023-05-07T13:44:04;2.75;;;0.88;;
7051;SDS011;3567;52.444;13.556;2023-05-07T13:46:29;1.23;;;0.90;;
7051;SDS011;3567;52.444;13.556;2023-05-07T13:48:55;1.90;;;1.25;;
7051;SDS011;3567;52.444;13.556;2023-05-07T13:51:21;0.60;;;0.60;;
7051;SDS011;3567;52.444;13.556;2023-05-07T13:53:47;4.22;;;0.88;;
7051;SDS011;3567;52.444;13.556;2023-05-07T13:56:12;0.65;;;0.65;;
7051;SDS011;3567;52.444;13.556;2023-05-07T13:58:39;2.35;;;0.85;;
7051;SDS011;3567;52.444;13.556;2023-05-07T14:01:05;1.10;;;0.85;;
7051;SDS011;3567;52.444;13.556;2023-05-07T14:03:30;2.03;;;1.60;;
7051;SDS011;3567;52.444;13.556;2023-05-07T14:05:57;0.95;;;0.77;;
7051;SDS011;3567;52.444;13.556;2023-05-07T14:08:24;0.98;;;0.88;;
7051;SDS011;3567;52.444;13.556;2023-05-07T14:10:50;0.65;;;0.65;;
7051;SDS011;3567;52.444;13.556;2023-05-07T14:13:15;1.25;;;0.70;;
7051;SDS011;3567;52.444;13.556;2023-05-07T14:15:41;2.30;;;0.80;;
7051;SDS011;3567;52.444;13.556;2023-05-07T14:18:11;0.60;;;0.60;;
7051;SDS011;3567;52.444;13.556;2023-05-07T14:20:36;2.50;;;0.70;;
7051;SDS011;3567;52.444;13.556;2023-05-07T14:23:02;0.75;;;0.50;;
7051;SDS011;3567;52.444;13.556;2023-05-07T14:25:28;1.42;;;0.68;;
7051;SDS011;3567;52.444;13.556;2023-05-07T14:27:53;0.47;;;0.47;;
7051;SDS011;3567;52.444;13.556;2023-05-07T14:30:18;1.65;;;0.70;;
7051;SDS011;3567;52.444;13.556;2023-05-07T14:32:44;1.38;;;0.60;;
7051;SDS011;3567;52.444;13.556;2023-05-07T14:35:09;0.98;;;0.55;;
7051;SDS011;3567;52.444;13.556;2023-05-07T14:37:34;0.60;;;0.57;;
7051;SDS011;3567;52.444;13.556;2023-05-07T14:40:00;0.60;;;0.60;;
7051;SDS011;3567;52.444;13.556;2023-05-07T14:42:25;0.55;;;0.55;;
7051;SDS011;3567;52.444;13.556;2023-05-07T14:44:51;0.52;;;0.50;;
7051;SDS011;3567;52.444;13.556;2023-05-07T14:47:17;0.75;;;0.75;;
7051;SDS011;3567;52.444;13.556;2023-05-07T14:49:43;0.98;;;0.60;;
7051;SDS011;3567;52.444;13.556;2023-05-07T14:52:08;1.85;;;0.60;;
7051;SDS011;3567;52.444;13.556;2023-05-07T14:54:35;1.85;;;0.70;;